sensor_id;sensor_type;location;lat;lon;timestamp;pressure;altitude;pressure_sealevel;temperature
64947;BMP280;51469;52.150;4.682;2022-10-04T00:01:28;102574.34;;;19.57
64947;BMP280;51469;52.150;4.682;2022-10-04T00:04:08;102579.47;;;19.55
64947;BMP280;51469;52.150;4.682;2022-10-04T00:06:34;102573.53;;;19.60
64947;BMP280;51469;52.150;4.682;2022-10-04T00:09:14;102575.09;;;19.57
64947;BMP280;51469;52.150;4.682;2022-10-04T00:11:43;102567.16;;;19.56
64947;BMP280;51469;52.150;4.682;2022-10-04T00:14:19;102565.16;;;19.60
64947;BMP280;51469;52.150;4.682;2022-10-04T00:16:45;102573.13;;;19.58
64947;BMP280;51469;52.150;4.682;2022-10-04T00:27:19;102575.09;;;19.61
64947;BMP280;51469;52.150;4.682;2022-10-04T00:30:14;102572.75;;;19.63
64947;BMP280;51469;52.150;4.682;2022-10-04T00:37:57;102559.59;;;19.53
64947;BMP280;51469;52.150;4.682;2022-10-04T00:40:27;102569.53;;;19.54
64947;BMP280;51469;52.150;4.682;2022-10-04T00:43:06;102569.53;;;19.54
64947;BMP280;51469;52.150;4.682;2022-10-04T00:45:37;102558.41;;;19.43
64947;BMP280;51469;52.150;4.682;2022-10-04T00:48:18;102565.97;;;19.43
64947;BMP280;51469;52.150;4.682;2022-10-04T00:56:21;102546.88;;;19.34
64947;BMP280;51469;52.150;4.682;2022-10-04T01:01:23;102540.91;;;19.22
64947;BMP280;51469;52.150;4.682;2022-10-04T01:03:51;102532.56;;;19.15
64947;BMP280;51469;52.150;4.682;2022-10-04T01:06:19;102528.19;;;19.14
64947;BMP280;51469;52.150;4.682;2022-10-04T01:08:49;102530.19;;;19.10
64947;BMP280;51469;52.150;4.682;2022-10-04T01:11:27;102525.81;;;19.02
64947;BMP280;51469;52.150;4.682;2022-10-04T01:14:02;102529.75;;;19.08
64947;BMP280;51469;52.150;4.682;2022-10-04T01:16:34;102528.59;;;19.09
64947;BMP280;51469;52.150;4.682;2022-10-04T01:21:46;102519.44;;;19.12
64947;BMP280;51469;52.150;4.682;2022-10-04T01:26:38;102511.47;;;19.00
64947;BMP280;51469;52.150;4.682;2022-10-04T01:29:23;102495.56;;;18.90
64947;BMP280;51469;52.150;4.682;2022-10-04T01:31:50;102500.72;;;18.91
64947;BMP280;51469;52.150;4.682;2022-10-04T01:34:18;102505.09;;;18.82
64947;BMP280;51469;52.150;4.682;2022-10-04T01:36:45;102503.50;;;18.77
64947;BMP280;51469;52.150;4.682;2022-10-04T01:39:13;102489.22;;;18.75
64947;BMP280;51469;52.150;4.682;2022-10-04T01:44:32;102498.69;;;18.57
64947;BMP280;51469;52.150;4.682;2022-10-04T01:46:59;102484.38;;;18.48
64947;BMP280;51469;52.150;4.682;2022-10-04T01:49:29;102481.56;;;18.41
64947;BMP280;51469;52.150;4.682;2022-10-04T01:52:02;102482.72;;;18.33
64947;BMP280;51469;52.150;4.682;2022-10-04T01:54:32;102470.03;;;18.32
64947;BMP280;51469;52.150;4.682;2022-10-04T01:57:04;102469.22;;;18.31
64947;BMP280;51469;52.150;4.682;2022-10-04T01:59:36;102463.22;;;18.26
64947;BMP280;51469;52.150;4.682;2022-10-04T02:02:14;102446.97;;;18.21
64947;BMP280;51469;52.150;4.682;2022-10-04T02:04:42;102450.94;;;18.23
64947;BMP280;51469;52.150;4.682;2022-10-04T02:07:13;102441.41;;;18.21
64947;BMP280;51469;52.150;4.682;2022-10-04T02:09:42;102436.22;;;18.16
64947;BMP280;51469;52.150;4.682;2022-10-04T02:12:16;102429.53;;;18.20
64947;BMP280;51469;52.150;4.682;2022-10-04T02:14:46;102425.50;;;18.18
64947;BMP280;51469;52.150;4.682;2022-10-04T02:17:22;102408.81;;;18.11
64947;BMP280;51469;52.150;4.682;2022-10-04T02:19:49;102409.22;;;18.09
64947;BMP280;51469;52.150;4.682;2022-10-04T02:22:15;102404.84;;;18.05
64947;BMP280;51469;52.150;4.682;2022-10-04T02:24:44;102401.69;;;18.06
64947;BMP280;51469;52.150;4.682;2022-10-04T02:27:11;102403.25;;;18.04
64947;BMP280;51469;52.150;4.682;2022-10-04T02:29:36;102398.06;;;17.99
64947;BMP280;51469;52.150;4.682;2022-10-04T02:32:04;102397.69;;;17.97
64947;BMP280;51469;52.150;4.682;2022-10-04T02:34:49;102399.22;;;17.91
64947;BMP280;51469;52.150;4.682;2022-10-04T02:37:15;102396.03;;;17.89
64947;BMP280;51469;52.150;4.682;2022-10-04T02:39:46;102393.69;;;17.88
64947;BMP280;51469;52.150;4.682;2022-10-04T02:42:24;102398.00;;;17.85
64947;BMP280;51469;52.150;4.682;2022-10-04T02:44:58;102380.16;;;17.83
64947;BMP280;51469;52.150;4.682;2022-10-04T02:47:40;102381.72;;;17.80
64947;BMP280;51469;52.150;4.682;2022-10-04T02:50:29;102363.50;;;17.79
64947;BMP280;51469;52.150;4.682;2022-10-04T02:53:03;102357.09;;;17.75
64947;BMP280;51469;52.150;4.682;2022-10-04T02:55:33;102354.72;;;17.73
64947;BMP280;51469;52.150;4.682;2022-10-04T02:58:00;102344.44;;;17.74
64947;BMP280;51469;52.150;4.682;2022-10-04T03:00:31;102354.31;;;17.75
64947;BMP280;51469;52.150;4.682;2022-10-04T03:05:43;102365.78;;;17.66
64947;BMP280;51469;52.150;4.682;2022-10-04T03:08:08;102362.59;;;17.61
64947;BMP280;51469;52.150;4.682;2022-10-04T03:10:35;102359.81;;;17.61
64947;BMP280;51469;52.150;4.682;2022-10-04T03:13:01;102354.63;;;17.56
64947;BMP280;51469;52.150;4.682;2022-10-04T03:15:27;102353.88;;;17.63
64947;BMP280;51469;52.150;4.682;2022-10-04T03:17:53;102355.84;;;17.62
64947;BMP280;51469;52.150;4.682;2022-10-04T03:20:18;102354.63;;;17.56
64947;BMP280;51469;52.150;4.682;2022-10-04T03:22:48;102343.53;;;17.52
64947;BMP280;51469;52.150;4.682;2022-10-04T03:25:21;102334.41;;;17.52
64947;BMP280;51469;52.150;4.682;2022-10-04T03:27:48;102330.03;;;17.51
64947;BMP280;51469;52.150;4.682;2022-10-04T03:30:16;102322.13;;;17.53
64947;BMP280;51469;52.150;4.682;2022-10-04T03:32:44;102309.47;;;17.59
64947;BMP280;51469;52.150;4.682;2022-10-04T03:35:28;102320.56;;;17.59
64947;BMP280;51469;52.150;4.682;2022-10-04T03:37:56;102314.97;;;17.55
64947;BMP280;51469;52.150;4.682;2022-10-04T03:40:26;102324.16;;;17.60
64947;BMP280;51469;52.150;4.682;2022-10-04T03:42:53;102331.66;;;17.59
64947;BMP280;51469;52.150;4.682;2022-10-04T03:45:19;102310.63;;;17.58
64947;BMP280;51469;52.150;4.682;2022-10-04T03:47:48;102309.47;;;17.59
64947;BMP280;51469;52.150;4.682;2022-10-04T03:50:23;102309.47;;;17.59
64947;BMP280;51469;52.150;4.682;2022-10-04T03:52:52;102307.09;;;17.61
64947;BMP280;51469;52.150;4.682;2022-10-04T03:55:20;102317.81;;;17.63
64947;BMP280;51469;52.150;4.682;2022-10-04T03:57:48;102317.41;;;17.64
64947;BMP280;51469;52.150;4.682;2022-10-04T04:00:16;102312.25;;;17.59
64947;BMP280;51469;52.150;4.682;2022-10-04T04:02:48;102315.03;;;17.59
64947;BMP280;51469;52.150;4.682;2022-10-04T04:05:36;102320.56;;;17.59
64947;BMP280;51469;52.150;4.682;2022-10-04T04:08:21;102327.69;;;17.53
64947;BMP280;51469;52.150;4.682;2022-10-04T04:10:50;102325.63;;;17.46
64947;BMP280;51469;52.150;4.682;2022-10-04T04:14:36;102309.34;;;17.41
64947;BMP280;51469;52.150;4.682;2022-10-04T04:16:30;102323.63;;;17.37
64947;BMP280;51469;52.150;4.682;2022-10-04T04:19:01;102319.66;;;17.38
64947;BMP280;51469;52.150;4.682;2022-10-04T04:21:28;102316.50;;;17.39
64947;BMP280;51469;52.150;4.682;2022-10-04T04:23:58;102315.31;;;17.40
64947;BMP280;51469;52.150;4.682;2022-10-04T04:26:35;102320.47;;;17.38
64947;BMP280;51469;52.150;4.682;2022-10-04T04:31:40;102316.50;;;17.36
64947;BMP280;51469;52.150;4.682;2022-10-04T04:34:19;102310.13;;;17.32
64947;BMP280;51469;52.150;4.682;2022-10-04T04:36:45;102303.75;;;17.27
64947;BMP280;51469;52.150;4.682;2022-10-04T04:39:22;102300.19;;;17.31
64947;BMP280;51469;52.150;4.682;2022-10-04T04:42:10;102305.31;;;17.28
64947;BMP280;51469;52.150;4.682;2022-10-04T04:47:37;102303.78;;;17.31
64947;BMP280;51469;52.150;4.682;2022-10-04T04:52:53;102309.34;;;17.31
64947;BMP280;51469;52.150;4.682;2022-10-04T04:55:24;102304.56;;;17.35
64947;BMP280;51469;52.150;4.682;2022-10-04T04:57:52;102305.34;;;17.32
64947;BMP280;51469;52.150;4.682;2022-10-04T05:00:22;102314.06;;;17.31
64947;BMP280;51469;52.150;4.682;2022-10-04T05:02:58;102315.66;;;17.28
64947;BMP280;51469;52.150;4.682;2022-10-04T05:05:34;102315.25;;;17.26
64947;BMP280;51469;52.150;4.682;2022-10-04T05:08:19;102313.25;;;17.23
64947;BMP280;51469;52.150;4.682;2022-10-04T05:16:03;102318.03;;;17.30
64947;BMP280;51469;52.150;4.682;2022-10-04T05:18:31;102317.63;;;17.27
64947;BMP280;51469;52.150;4.682;2022-10-04T05:21:06;102309.69;;;17.26
64947;BMP280;51469;52.150;4.682;2022-10-04T05:23:33;102307.69;;;17.23
64947;BMP280;51469;52.150;4.682;2022-10-04T05:26:00;102292.63;;;17.21
64947;BMP280;51469;52.150;4.682;2022-10-04T05:28:27;102301.75;;;17.21
64947;BMP280;51469;52.150;4.682;2022-10-04T05:31:02;102304.09;;;17.23
64947;BMP280;51469;52.150;4.682;2022-10-04T05:33:49;102306.88;;;17.19
64947;BMP280;51469;52.150;4.682;2022-10-04T05:36:38;102294.97;;;17.15
64947;BMP280;51469;52.150;4.682;2022-10-04T05:39:16;102283.88;;;17.22
64947;BMP280;51469;52.150;4.682;2022-10-04T05:42:04;102284.75;;;17.26
64947;BMP280;51469;52.150;4.682;2022-10-04T05:44:49;102291.81;;;17.23
64947;BMP280;51469;52.150;4.682;2022-10-04T05:47:18;102291.06;;;17.23
64947;BMP280;51469;52.150;4.682;2022-10-04T05:49:50;102287.03;;;17.17
64947;BMP280;51469;52.150;4.682;2022-10-04T05:52:33;102274.31;;;17.09
64947;BMP280;51469;52.150;4.682;2022-10-04T05:55:26;102270.31;;;17.03
64947;BMP280;51469;52.150;4.682;2022-10-04T06:06:30;102271.81;;;16.87
64947;BMP280;51469;52.150;4.682;2022-10-04T06:09:33;102273.34;;;16.77
64947;BMP280;51469;52.150;4.682;2022-10-04T06:12:08;102270.16;;;16.75
64947;BMP280;51469;52.150;4.682;2022-10-04T06:20:16;102260.59;;;16.69
64947;BMP280;51469;52.150;4.682;2022-10-04T06:22:46;102257.38;;;16.64
64947;BMP280;51469;52.150;4.682;2022-10-04T06:25:25;102258.19;;;16.64
64947;BMP280;51469;52.150;4.682;2022-10-04T06:28:10;102230.75;;;16.52
64947;BMP280;51469;52.150;4.682;2022-10-04T06:36:21;102250.38;;;16.80
64947;BMP280;51469;52.150;4.682;2022-10-04T06:42:12;102255.13;;;16.83
64947;BMP280;51469;52.150;4.682;2022-10-04T06:50:59;102256.06;;;17.01
64947;BMP280;51469;52.150;4.682;2022-10-04T07:01:58;102261.03;;;17.46
64947;BMP280;51469;52.150;4.682;2022-10-04T07:07:27;102255.19;;;17.86
64947;BMP280;51469;52.150;4.682;2022-10-04T07:10:15;102244.94;;;18.04
64947;BMP280;51469;52.150;4.682;2022-10-04T07:13:10;102250.09;;;18.02
64947;BMP280;51469;52.150;4.682;2022-10-04T07:15:35;102248.50;;;18.29
64947;BMP280;51469;52.150;4.682;2022-10-04T07:18:14;102253.25;;;18.49
64947;BMP280;51469;52.150;4.682;2022-10-04T07:20:40;102252.84;;;18.58
64947;BMP280;51469;52.150;4.682;2022-10-04T07:23:12;102244.94;;;18.60
64947;BMP280;51469;52.150;4.682;2022-10-04T07:25:48;102260.78;;;18.63
64947;BMP280;51469;52.150;4.682;2022-10-04T07:28:19;102245.31;;;18.62
64947;BMP280;51469;52.150;4.682;2022-10-04T07:31:20;102247.31;;;18.61
64947;BMP280;51469;52.150;4.682;2022-10-04T07:33:50;102250.09;;;18.61
64947;BMP280;51469;52.150;4.682;2022-10-04T07:36:25;102246.50;;;18.64
64947;BMP280;51469;52.150;4.682;2022-10-04T07:38:55;102255.59;;;18.68
64947;BMP280;51469;52.150;4.682;2022-10-04T07:41:32;102266.72;;;18.72
64947;BMP280;51469;52.150;4.682;2022-10-04T07:44:10;102277.06;;;18.78
64947;BMP280;51469;52.150;4.682;2022-10-04T07:49:24;102265.91;;;18.89
64947;BMP280;51469;52.150;4.682;2022-10-04T07:54:46;102261.88;;;19.04
64947;BMP280;51469;52.150;4.682;2022-10-04T08:05:33;102275.72;;;19.32
64947;BMP280;51469;52.150;4.682;2022-10-04T08:13:51;102276.13;;;19.23
64947;BMP280;51469;52.150;4.682;2022-10-04T08:16:59;102266.50;;;19.42
64947;BMP280;51469;52.150;4.682;2022-10-04T08:25:16;102271.38;;;19.24
64947;BMP280;51469;52.150;4.682;2022-10-04T08:36:10;102258.84;;;20.18
64947;BMP280;51469;52.150;4.682;2022-10-04T08:38:59;102260.13;;;20.54
64947;BMP280;51469;52.150;4.682;2022-10-04T08:41:53;102261.31;;;20.90
64947;BMP280;51469;52.150;4.682;2022-10-04T08:47:36;102242.03;;;22.51
64947;BMP280;51469;52.150;4.682;2022-10-04T08:55:48;102254.22;;;22.79
64947;BMP280;51469;52.150;4.682;2022-10-04T09:01:16;102250.94;;;22.00
64947;BMP280;51469;52.150;4.682;2022-10-04T09:12:55;102262.91;;;21.51
64947;BMP280;51469;52.150;4.682;2022-10-04T09:15:27;102254.16;;;21.49
64947;BMP280;51469;52.150;4.682;2022-10-04T09:21:25;102257.16;;;21.61
64947;BMP280;51469;52.150;4.682;2022-10-04T09:42:17;102201.53;;;22.36
64947;BMP280;51469;52.150;4.682;2022-10-04T09:50:50;102215.47;;;22.59
64947;BMP280;51469;52.150;4.682;2022-10-04T10:13:19;102229.56;;;23.45
64947;BMP280;51469;52.150;4.682;2022-10-04T10:16:20;102236.47;;;23.57
64947;BMP280;51469;52.150;4.682;2022-10-04T10:39:08;102213.22;;;24.20
64947;BMP280;51469;52.150;4.682;2022-10-04T10:41:32;102202.91;;;24.17
64947;BMP280;51469;52.150;4.682;2022-10-04T10:57:49;102204.28;;;24.25
64947;BMP280;51469;52.150;4.682;2022-10-04T11:00:38;102199.19;;;24.20
64947;BMP280;51469;52.150;4.682;2022-10-04T11:06:10;102202.69;;;24.65
64947;BMP280;51469;52.150;4.682;2022-10-04T11:28:01;102193.50;;;24.65
64947;BMP280;51469;52.150;4.682;2022-10-04T11:33:54;102205.75;;;24.83
64947;BMP280;51469;52.150;4.682;2022-10-04T11:36:42;102192.84;;;24.98
64947;BMP280;51469;52.150;4.682;2022-10-04T11:55:48;102176.34;;;25.00
64947;BMP280;51469;52.150;4.682;2022-10-04T12:15:36;102153.56;;;24.32
64947;BMP280;51469;52.150;4.682;2022-10-04T12:33:31;102127.34;;;25.01
64947;BMP280;51469;52.150;4.682;2022-10-04T12:52:18;102099.91;;;25.30
64947;BMP280;51469;52.150;4.682;2022-10-04T12:54:49;102099.16;;;25.17
64947;BMP280;51469;52.150;4.682;2022-10-04T12:57:50;102116.44;;;25.16
64947;BMP280;51469;52.150;4.682;2022-10-04T13:00:20;102116.13;;;25.01
64947;BMP280;51469;52.150;4.682;2022-10-04T13:03:26;102119.03;;;25.10
64947;BMP280;51469;52.150;4.682;2022-10-04T13:06:12;102110.03;;;25.15
64947;BMP280;51469;52.150;4.682;2022-10-04T13:08:56;102107.69;;;25.01
64947;BMP280;51469;52.150;4.682;2022-10-04T13:11:47;102095.91;;;25.06
64947;BMP280;51469;52.150;4.682;2022-10-04T13:17:09;102073.19;;;25.13
64947;BMP280;51469;52.150;4.682;2022-10-04T13:22:40;102060.16;;;25.19
64947;BMP280;51469;52.150;4.682;2022-10-04T13:25:38;102058.91;;;25.20
64947;BMP280;51469;52.150;4.682;2022-10-04T13:28:18;102044.97;;;25.17
64947;BMP280;51469;52.150;4.682;2022-10-04T13:53:00;102031.44;;;25.58
64947;BMP280;51469;52.150;4.682;2022-10-04T14:01:45;102019.53;;;25.54
64947;BMP280;51469;52.150;4.682;2022-10-04T14:13:03;102034.53;;;25.17
64947;BMP280;51469;52.150;4.682;2022-10-04T14:35:16;102035.00;;;25.16
64947;BMP280;51469;52.150;4.682;2022-10-04T14:52:14;102046.03;;;24.85
64947;BMP280;51469;52.150;4.682;2022-10-04T14:54:55;102038.56;;;24.70
64947;BMP280;51469;52.150;4.682;2022-10-04T15:06:10;102050.56;;;24.45
64947;BMP280;51469;52.150;4.682;2022-10-04T15:08:56;102045.84;;;24.42
64947;BMP280;51469;52.150;4.682;2022-10-04T15:11:38;102047.53;;;24.52
64947;BMP280;51469;52.150;4.682;2022-10-04T15:14:24;102040.88;;;24.46
64947;BMP280;51469;52.150;4.682;2022-10-04T15:16:56;102036.78;;;24.63
64947;BMP280;51469;52.150;4.682;2022-10-04T15:19:28;102027.34;;;24.70
64947;BMP280;51469;52.150;4.682;2022-10-04T15:22:04;102032.84;;;24.73
64947;BMP280;51469;52.150;4.682;2022-10-04T15:24:44;102033.97;;;24.63
64947;BMP280;51469;52.150;4.682;2022-10-04T15:35:17;102037.53;;;24.76
64947;BMP280;51469;52.150;4.682;2022-10-04T15:40:34;102006.31;;;24.74
64947;BMP280;51469;52.150;4.682;2022-10-04T15:43:21;102017.75;;;24.67
64947;BMP280;51469;52.150;4.682;2022-10-04T15:45:51;102019.09;;;24.75
64947;BMP280;51469;52.150;4.682;2022-10-04T15:56:51;102022.00;;;24.84
64947;BMP280;51469;52.150;4.682;2022-10-04T15:59:44;102038.19;;;24.80
64947;BMP280;51469;52.150;4.682;2022-10-04T16:13:35;102020.59;;;24.55
64947;BMP280;51469;52.150;4.682;2022-10-04T16:32:17;102039.31;;;24.20
64947;BMP280;51469;52.150;4.682;2022-10-04T16:34:57;102037.81;;;24.16
64947;BMP280;51469;52.150;4.682;2022-10-04T16:39:53;102039.31;;;24.20
64947;BMP280;51469;52.150;4.682;2022-10-04T16:42:51;102026.59;;;24.16
64947;BMP280;51469;52.150;4.682;2022-10-04T16:45:40;102025.72;;;24.19
64947;BMP280;51469;52.150;4.682;2022-10-04T16:48:26;102035.72;;;24.07
64947;BMP280;51469;52.150;4.682;2022-10-04T16:56:11;102036.59;;;24.04
64947;BMP280;51469;52.150;4.682;2022-10-04T16:58:59;102038.06;;;23.80
64947;BMP280;51469;52.150;4.682;2022-10-04T17:06:55;102031.94;;;23.85
64947;BMP280;51469;52.150;4.682;2022-10-04T17:12:33;102026.00;;;23.83
64947;BMP280;51469;52.150;4.682;2022-10-04T17:15:06;102035.81;;;23.75
64947;BMP280;51469;52.150;4.682;2022-10-04T17:26:28;102046.16;;;23.78
64947;BMP280;51469;52.150;4.682;2022-10-04T17:37:21;102039.34;;;23.79
64947;BMP280;51469;52.150;4.682;2022-10-04T17:39:53;102026.88;;;23.80
64947;BMP280;51469;52.150;4.682;2022-10-04T17:42:54;102031.78;;;23.76
64947;BMP280;51469;52.150;4.682;2022-10-04T17:48:29;102026.00;;;23.83
64947;BMP280;51469;52.150;4.682;2022-10-04T17:54:13;102028.03;;;23.83
64947;BMP280;51469;52.150;4.682;2022-10-04T17:59:41;102027.75;;;23.77
64947;BMP280;51469;52.150;4.682;2022-10-04T18:02:10;102019.94;;;23.85
64947;BMP280;51469;52.150;4.682;2022-10-04T18:04:56;102016.53;;;23.77
64947;BMP280;51469;52.150;4.682;2022-10-04T18:07:26;102026.00;;;23.83
64947;BMP280;51469;52.150;4.682;2022-10-04T18:10:00;102017.81;;;23.60
64947;BMP280;51469;52.150;4.682;2022-10-04T18:12:31;102030.94;;;23.63
64947;BMP280;51469;52.150;4.682;2022-10-04T18:17:48;102026.31;;;23.57
64947;BMP280;51469;52.150;4.682;2022-10-04T18:22:54;102031.31;;;23.65
64947;BMP280;51469;52.150;4.682;2022-10-04T18:25:22;102030.41;;;23.68
64947;BMP280;51469;52.150;4.682;2022-10-04T18:36:13;102026.59;;;23.62
64947;BMP280;51469;52.150;4.682;2022-10-04T18:38:42;102022.91;;;23.65
64947;BMP280;51469;52.150;4.682;2022-10-04T18:41:16;102010.31;;;23.57
64947;BMP280;51469;52.150;4.682;2022-10-04T18:43:49;102007.50;;;23.57
64947;BMP280;51469;52.150;4.682;2022-10-04T18:46:17;102000.13;;;23.63
64947;BMP280;51469;52.150;4.682;2022-10-04T18:49:30;101994.22;;;23.61
64947;BMP280;51469;52.150;4.682;2022-10-04T19:00:07;101973.00;;;23.60
64947;BMP280;51469;52.150;4.682;2022-10-04T19:05:46;101968.28;;;23.57
64947;BMP280;51469;52.150;4.682;2022-10-04T19:08:30;101960.41;;;23.52
64947;BMP280;51469;52.150;4.682;2022-10-04T19:11:02;101959.53;;;23.55
64947;BMP280;51469;52.150;4.682;2022-10-04T19:13:47;101959.53;;;23.55
64947;BMP280;51469;52.150;4.682;2022-10-04T19:27:34;101957.06;;;23.57
64947;BMP280;51469;52.150;4.682;2022-10-04T19:35:27;101964.47;;;23.51
64947;BMP280;51469;52.150;4.682;2022-10-04T19:40:32;101969.19;;;23.54
64947;BMP280;51469;52.150;4.682;2022-10-04T19:43:09;101957.06;;;23.57
64947;BMP280;51469;52.150;4.682;2022-10-04T19:45:40;101967.59;;;23.53
64947;BMP280;51469;52.150;4.682;2022-10-04T19:48:28;101975.88;;;23.44
64947;BMP280;51469;52.150;4.682;2022-10-04T19:51:05;101972.50;;;23.49
64947;BMP280;51469;52.150;4.682;2022-10-04T19:53:41;101970.91;;;23.48
64947;BMP280;51469;52.150;4.682;2022-10-04T19:56:18;101969.38;;;23.47
64947;BMP280;51469;52.150;4.682;2022-10-04T20:01:21;101978.13;;;23.49
64947;BMP280;51469;52.150;4.682;2022-10-04T20:03:48;101978.22;;;23.46
64947;BMP280;51469;52.150;4.682;2022-10-04T20:06:35;101975.41;;;23.46
64947;BMP280;51469;52.150;4.682;2022-10-04T20:17:39;101964.84;;;23.37
64947;BMP280;51469;52.150;4.682;2022-10-04T20:20:05;101972.03;;;23.38
64947;BMP280;51469;52.150;4.682;2022-10-04T20:33:51;101992.63;;;23.32
64947;BMP280;51469;52.150;4.682;2022-10-04T20:39:01;101993.06;;;23.30
64947;BMP280;51469;52.150;4.682;2022-10-04T20:43:54;101986.28;;;23.15
64947;BMP280;51469;52.150;4.682;2022-10-04T20:46:31;101986.06;;;23.22
64947;BMP280;51469;52.150;4.682;2022-10-04T20:49:00;101987.28;;;23.21
64947;BMP280;51469;52.150;4.682;2022-10-04T20:51:28;101996.19;;;23.32
64947;BMP280;51469;52.150;4.682;2022-10-04T20:53:59;101977.28;;;23.20
64947;BMP280;51469;52.150;4.682;2022-10-04T20:56:28;101991.41;;;23.17
64947;BMP280;51469;52.150;4.682;2022-10-04T20:58:59;101982.91;;;23.20
64947;BMP280;51469;52.150;4.682;2022-10-04T21:01:35;101986.69;;;23.14
64947;BMP280;51469;52.150;4.682;2022-10-04T21:06:54;101985.56;;;23.11
64947;BMP280;51469;52.150;4.682;2022-10-04T21:09:21;101980.22;;;23.17
64947;BMP280;51469;52.150;4.682;2022-10-04T21:11:49;101991.97;;;23.12
64947;BMP280;51469;52.150;4.682;2022-10-04T21:16:51;101992.91;;;23.05
64947;BMP280;51469;52.150;4.682;2022-10-04T21:22:03;101987.16;;;22.96
64947;BMP280;51469;52.150;4.682;2022-10-04T21:24:35;101983.28;;;23.06
64947;BMP280;51469;52.150;4.682;2022-10-04T21:27:01;101985.56;;;23.11
64947;BMP280;51469;52.150;4.682;2022-10-04T21:29:27;101976.78;;;23.09
64947;BMP280;51469;52.150;4.682;2022-10-04T21:31:56;101979.97;;;23.11
64947;BMP280;51469;52.150;4.682;2022-10-04T21:34:23;101971.56;;;23.11
64947;BMP280;51469;52.150;4.682;2022-10-04T21:36:49;101978.19;;;23.17
64947;BMP280;51469;52.150;4.682;2022-10-04T21:39:14;101968.28;;;23.29
64947;BMP280;51469;52.150;4.682;2022-10-04T21:41:40;101972.78;;;23.10
64947;BMP280;51469;52.150;4.682;2022-10-04T21:44:06;101961.06;;;22.99
64947;BMP280;51469;52.150;4.682;2022-10-04T21:46:33;101960.38;;;22.95
64947;BMP280;51469;52.150;4.682;2022-10-04T21:48:58;101960.44;;;23.08
64947;BMP280;51469;52.150;4.682;2022-10-04T21:51:23;101959.66;;;23.07
64947;BMP280;51469;52.150;4.682;2022-10-04T21:53:49;101950.75;;;22.96
64947;BMP280;51469;52.150;4.682;2022-10-04T21:56:14;101939.00;;;23.01
64947;BMP280;51469;52.150;4.682;2022-10-04T21:58:40;101944.28;;;22.99
64947;BMP280;51469;52.150;4.682;2022-10-04T22:01:05;101948.28;;;22.98
64947;BMP280;51469;52.150;4.682;2022-10-04T22:03:31;101942.53;;;23.05
64947;BMP280;51469;52.150;4.682;2022-10-04T22:05:56;101940.94;;;23.04
64947;BMP280;51469;52.150;4.682;2022-10-04T22:08:22;101938.66;;;22.99
64947;BMP280;51469;52.150;4.682;2022-10-04T22:10:47;101944.78;;;22.94
64947;BMP280;51469;52.150;4.682;2022-10-04T22:13:13;101941.38;;;23.03
64947;BMP280;51469;52.150;4.682;2022-10-04T22:15:38;101945.66;;;23.07
64947;BMP280;51469;52.150;4.682;2022-10-04T22:18:04;101930.09;;;23.06
64947;BMP280;51469;52.150;4.682;2022-10-04T22:20:29;101932.88;;;23.06
64947;BMP280;51469;52.150;4.682;2022-10-04T22:22:55;101938.09;;;22.92
64947;BMP280;51469;52.150;4.682;2022-10-04T22:25:23;101928.69;;;22.98
64947;BMP280;51469;52.150;4.682;2022-10-04T22:27:50;101927.47;;;22.99
64947;BMP280;51469;52.150;4.682;2022-10-04T22:30:27;101912.38;;;22.97
64947;BMP280;51469;52.150;4.682;2022-10-04T22:32:54;101929.34;;;22.90
64947;BMP280;51469;52.150;4.682;2022-10-04T22:35:20;101931.84;;;22.84
64947;BMP280;51469;52.150;4.682;2022-10-04T22:37:46;101928.94;;;22.76
64947;BMP280;51469;52.150;4.682;2022-10-04T22:40:20;101932.75;;;22.82
64947;BMP280;51469;52.150;4.682;2022-10-04T22:42:56;101921.72;;;22.75
64947;BMP280;51469;52.150;4.682;2022-10-04T22:45:27;101918.94;;;22.75
64947;BMP280;51469;52.150;4.682;2022-10-04T22:47:55;101911.41;;;22.72
64947;BMP280;51469;52.150;4.682;2022-10-04T22:50:29;101918.16;;;22.74
64947;BMP280;51469;52.150;4.682;2022-10-04T22:52:54;101925.41;;;22.56
64947;BMP280;51469;52.150;4.682;2022-10-04T22:55:20;101920.34;;;22.67
64947;BMP280;51469;52.150;4.682;2022-10-04T22:57:45;101928.47;;;22.77
64947;BMP280;51469;52.150;4.682;2022-10-04T23:00:11;101930.03;;;22.62
64947;BMP280;51469;52.150;4.682;2022-10-04T23:02:37;101937.13;;;22.67
64947;BMP280;51469;52.150;4.682;2022-10-04T23:05:15;101930.63;;;22.70
64947;BMP280;51469;52.150;4.682;2022-10-04T23:07:46;101929.06;;;22.69
64947;BMP280;51469;52.150;4.682;2022-10-04T23:10:15;101920.03;;;22.65
64947;BMP280;51469;52.150;4.682;2022-10-04T23:12:43;101915.25;;;22.62
64947;BMP280;51469;52.150;4.682;2022-10-04T23:15:14;101914.81;;;22.63
64947;BMP280;51469;52.150;4.682;2022-10-04T23:17:39;101912.81;;;22.64
64947;BMP280;51469;52.150;4.682;2022-10-04T23:20:15;101911.78;;;22.58
64947;BMP280;51469;52.150;4.682;2022-10-04T23:22:46;101920.53;;;22.60
64947;BMP280;51469;52.150;4.682;2022-10-04T23:25:27;101922.88;;;22.61
64947;BMP280;51469;52.150;4.682;2022-10-04T23:27:55;101922.97;;;22.58
64947;BMP280;51469;52.150;4.682;2022-10-04T23:30:22;101916.59;;;22.57
64947;BMP280;51469;52.150;4.682;2022-10-04T23:32:49;101913.84;;;22.54
64947;BMP280;51469;52.150;4.682;2022-10-04T23:35:24;101904.16;;;22.58
64947;BMP280;51469;52.150;4.682;2022-10-04T23:37:50;101899.88;;;22.54
64947;BMP280;51469;52.150;4.682;2022-10-04T23:40:20;101896.63;;;22.55
64947;BMP280;51469;52.150;4.682;2022-10-04T23:42:48;101910.91;;;22.61
64947;BMP280;51469;52.150;4.682;2022-10-04T23:45:17;101905.66;;;22.63
64947;BMP280;51469;52.150;4.682;2022-10-04T23:47:43;101901.56;;;22.67
64947;BMP280;51469;52.150;4.682;2022-10-04T23:52:47;101892.56;;;22.60
64947;BMP280;51469;52.150;4.682;2022-10-04T23:55:23;101891.75;;;22.59
64947;BMP280;51469;52.150;4.682;2022-10-04T23:57:49;101902.94;;;22.59
